sensor_id;sensor_type;location;lat;lon;timestamp;temperature;humidity
31765;DHT22;18338;53.240;8.798;2023-02-25T00:01:37;3.80;99.90
31765;DHT22;18338;53.240;8.798;2023-02-25T00:04:03;4.00;99.90
31765;DHT22;18338;53.240;8.798;2023-02-25T00:06:30;4.00;99.90
31765;DHT22;18338;53.240;8.798;2023-02-25T00:08:57;3.80;99.90
31765;DHT22;18338;53.240;8.798;2023-02-25T00:11:25;3.80;99.90
31765;DHT22;18338;53.240;8.798;2023-02-25T00:13:53;3.80;99.90
31765;DHT22;18338;53.240;8.798;2023-02-25T00:16:23;3.80;99.90
31765;DHT22;18338;53.240;8.798;2023-02-25T00:18:54;3.60;99.90
31765;DHT22;18338;53.240;8.798;2023-02-25T00:21:22;3.50;99.90
31765;DHT22;18338;53.240;8.798;2023-02-25T00:23:50;3.40;99.90
31765;DHT22;18338;53.240;8.798;2023-02-25T00:26:18;3.40;99.90
31765;DHT22;18338;53.240;8.798;2023-02-25T00:28:46;3.50;99.90
31765;DHT22;18338;53.240;8.798;2023-02-25T00:31:17;3.60;99.90
31765;DHT22;18338;53.240;8.798;2023-02-25T00:33:45;3.70;99.90
31765;DHT22;18338;53.240;8.798;2023-02-25T00:36:15;3.70;99.90
31765;DHT22;18338;53.240;8.798;2023-02-25T00:38:48;3.80;99.90
31765;DHT22;18338;53.240;8.798;2023-02-25T00:41:17;3.90;99.90
31765;DHT22;18338;53.240;8.798;2023-02-25T00:43:49;4.00;99.90
31765;DHT22;18338;53.240;8.798;2023-02-25T00:46:17;4.00;99.90
31765;DHT22;18338;53.240;8.798;2023-02-25T00:48:45;3.90;99.90
31765;DHT22;18338;53.240;8.798;2023-02-25T00:51:14;3.90;99.90
31765;DHT22;18338;53.240;8.798;2023-02-25T00:53:41;3.90;99.90
31765;DHT22;18338;53.240;8.798;2023-02-25T00:56:09;3.80;99.90
31765;DHT22;18338;53.240;8.798;2023-02-25T00:58:38;3.70;99.90
31765;DHT22;18338;53.240;8.798;2023-02-25T01:01:13;3.70;99.90
31765;DHT22;18338;53.240;8.798;2023-02-25T01:03:40;3.80;99.90
31765;DHT22;18338;53.240;8.798;2023-02-25T01:06:08;3.90;99.90
31765;DHT22;18338;53.240;8.798;2023-02-25T01:08:36;3.90;99.90
31765;DHT22;18338;53.240;8.798;2023-02-25T01:11:14;4.00;99.90
31765;DHT22;18338;53.240;8.798;2023-02-25T01:13:42;4.10;99.90
31765;DHT22;18338;53.240;8.798;2023-02-25T01:16:11;4.20;99.90
31765;DHT22;18338;53.240;8.798;2023-02-25T01:18:38;4.10;99.90
31765;DHT22;18338;53.240;8.798;2023-02-25T01:21:06;4.00;99.90
31765;DHT22;18338;53.240;8.798;2023-02-25T01:23:33;3.90;99.90
31765;DHT22;18338;53.240;8.798;2023-02-25T01:26:02;3.80;99.90
31765;DHT22;18338;53.240;8.798;2023-02-25T01:28:29;3.80;99.90
31765;DHT22;18338;53.240;8.798;2023-02-25T01:30:56;3.90;99.90
31765;DHT22;18338;53.240;8.798;2023-02-25T01:33:23;4.00;99.90
31765;DHT22;18338;53.240;8.798;2023-02-25T01:35:50;3.90;99.90
31765;DHT22;18338;53.240;8.798;2023-02-25T01:38:16;3.70;99.90
31765;DHT22;18338;53.240;8.798;2023-02-25T01:40:44;3.80;99.90
31765;DHT22;18338;53.240;8.798;2023-02-25T01:43:14;3.80;99.90
31765;DHT22;18338;53.240;8.798;2023-02-25T01:45:42;4.00;99.90
31765;DHT22;18338;53.240;8.798;2023-02-25T01:48:18;4.00;99.90
31765;DHT22;18338;53.240;8.798;2023-02-25T01:50:54;4.10;99.90
31765;DHT22;18338;53.240;8.798;2023-02-25T01:53:27;4.10;99.90
31765;DHT22;18338;53.240;8.798;2023-02-25T01:55:57;4.10;99.90
31765;DHT22;18338;53.240;8.798;2023-02-25T01:58:28;4.10;99.90
31765;DHT22;18338;53.240;8.798;2023-02-25T02:00:55;4.00;99.90
31765;DHT22;18338;53.240;8.798;2023-02-25T02:03:26;4.00;99.90
31765;DHT22;18338;53.240;8.798;2023-02-25T02:08:44;4.00;99.90
31765;DHT22;18338;53.240;8.798;2023-02-25T02:11:12;4.00;99.90
31765;DHT22;18338;53.240;8.798;2023-02-25T02:13:43;4.00;99.90
31765;DHT22;18338;53.240;8.798;2023-02-25T02:18:48;4.10;99.90
31765;DHT22;18338;53.240;8.798;2023-02-25T02:27:05;4.00;99.90
31765;DHT22;18338;53.240;8.798;2023-02-25T02:30:02;3.90;99.90
31765;DHT22;18338;53.240;8.798;2023-02-25T02:32:35;3.70;99.90
31765;DHT22;18338;53.240;8.798;2023-02-25T02:35:42;3.60;99.90
31765;DHT22;18338;53.240;8.798;2023-02-25T02:41:02;3.40;99.90
31765;DHT22;18338;53.240;8.798;2023-02-25T02:43:41;3.30;99.90
31765;DHT22;18338;53.240;8.798;2023-02-25T02:46:22;3.20;99.90
31765;DHT22;18338;53.240;8.798;2023-02-25T02:49:03;3.20;99.90
31765;DHT22;18338;53.240;8.798;2023-02-25T02:51:43;3.20;99.90
31765;DHT22;18338;53.240;8.798;2023-02-25T02:54:11;3.40;99.90
31765;DHT22;18338;53.240;8.798;2023-02-25T02:56:42;3.40;99.90
31765;DHT22;18338;53.240;8.798;2023-02-25T02:59:24;3.40;99.90
31765;DHT22;18338;53.240;8.798;2023-02-25T03:02:03;3.40;99.90
31765;DHT22;18338;53.240;8.798;2023-02-25T03:04:38;3.70;99.90
31765;DHT22;18338;53.240;8.798;2023-02-25T03:07:09;3.80;99.90
31765;DHT22;18338;53.240;8.798;2023-02-25T03:09:51;3.90;99.90
31765;DHT22;18338;53.240;8.798;2023-02-25T03:12:19;3.90;99.90
31765;DHT22;18338;53.240;8.798;2023-02-25T03:15:03;3.90;99.90
31765;DHT22;18338;53.240;8.798;2023-02-25T03:17:34;3.90;99.90
31765;DHT22;18338;53.240;8.798;2023-02-25T03:20:19;3.90;99.90
31765;DHT22;18338;53.240;8.798;2023-02-25T03:22:48;3.80;99.90
31765;DHT22;18338;53.240;8.798;2023-02-25T03:25:38;3.80;99.90
31765;DHT22;18338;53.240;8.798;2023-02-25T03:28:29;3.80;99.90
31765;DHT22;18338;53.240;8.798;2023-02-25T03:31:10;3.80;99.90
31765;DHT22;18338;53.240;8.798;2023-02-25T03:33:45;3.80;99.90
31765;DHT22;18338;53.240;8.798;2023-02-25T03:36:27;3.80;99.90
31765;DHT22;18338;53.240;8.798;2023-02-25T03:39:04;3.70;99.90
31765;DHT22;18338;53.240;8.798;2023-02-25T03:41:36;3.60;99.90
31765;DHT22;18338;53.240;8.798;2023-02-25T03:44:08;3.60;99.90
31765;DHT22;18338;53.240;8.798;2023-02-25T03:46:38;3.60;99.90
31765;DHT22;18338;53.240;8.798;2023-02-25T03:49:08;3.60;99.90
31765;DHT22;18338;53.240;8.798;2023-02-25T03:51:39;3.50;99.90
31765;DHT22;18338;53.240;8.798;2023-02-25T03:54:10;3.40;99.90
31765;DHT22;18338;53.240;8.798;2023-02-25T03:56:45;3.30;99.90
31765;DHT22;18338;53.240;8.798;2023-02-25T03:59:13;3.20;99.90
31765;DHT22;18338;53.240;8.798;2023-02-25T04:01:41;3.00;99.90
31765;DHT22;18338;53.240;8.798;2023-02-25T04:04:09;2.90;99.90
31765;DHT22;18338;53.240;8.798;2023-02-25T04:06:37;2.90;99.90
31765;DHT22;18338;53.240;8.798;2023-02-25T04:09:04;2.80;99.90
31765;DHT22;18338;53.240;8.798;2023-02-25T04:11:32;2.80;99.90
31765;DHT22;18338;53.240;8.798;2023-02-25T04:13:59;2.80;99.90
31765;DHT22;18338;53.240;8.798;2023-02-25T04:16:26;2.80;99.90
31765;DHT22;18338;53.240;8.798;2023-02-25T04:18:53;2.90;99.90
31765;DHT22;18338;53.240;8.798;2023-02-25T04:21:30;3.00;99.90
31765;DHT22;18338;53.240;8.798;2023-02-25T04:23:58;3.10;99.90
31765;DHT22;18338;53.240;8.798;2023-02-25T04:26:26;3.20;99.90
31765;DHT22;18338;53.240;8.798;2023-02-25T04:28:52;3.20;99.90
31765;DHT22;18338;53.240;8.798;2023-02-25T04:31:19;3.20;99.90
31765;DHT22;18338;53.240;8.798;2023-02-25T04:33:51;3.20;99.90
31765;DHT22;18338;53.240;8.798;2023-02-25T04:38:49;3.30;99.90
31765;DHT22;18338;53.240;8.798;2023-02-25T04:41:19;3.40;99.90
31765;DHT22;18338;53.240;8.798;2023-02-25T04:43:46;3.40;99.90
31765;DHT22;18338;53.240;8.798;2023-02-25T04:46:13;3.40;99.90
31765;DHT22;18338;53.240;8.798;2023-02-25T04:48:40;3.30;99.90
31765;DHT22;18338;53.240;8.798;2023-02-25T04:51:07;3.20;99.90
31765;DHT22;18338;53.240;8.798;2023-02-25T04:53:35;3.00;99.90
31765;DHT22;18338;53.240;8.798;2023-02-25T04:56:04;3.00;99.90
31765;DHT22;18338;53.240;8.798;2023-02-25T04:58:32;2.90;99.90
31765;DHT22;18338;53.240;8.798;2023-02-25T05:01:01;2.90;99.90
31765;DHT22;18338;53.240;8.798;2023-02-25T05:03:28;2.70;99.90
31765;DHT22;18338;53.240;8.798;2023-02-25T05:05:56;2.60;99.90
31765;DHT22;18338;53.240;8.798;2023-02-25T05:08:23;2.50;99.90
31765;DHT22;18338;53.240;8.798;2023-02-25T05:10:50;2.50;99.90
31765;DHT22;18338;53.240;8.798;2023-02-25T05:13:18;2.50;99.90
31765;DHT22;18338;53.240;8.798;2023-02-25T05:15:45;2.60;99.90
31765;DHT22;18338;53.240;8.798;2023-02-25T05:18:12;2.60;99.90
31765;DHT22;18338;53.240;8.798;2023-02-25T05:20:44;2.60;99.90
31765;DHT22;18338;53.240;8.798;2023-02-25T05:23:12;2.50;99.90
31765;DHT22;18338;53.240;8.798;2023-02-25T05:25:39;2.50;99.90
31765;DHT22;18338;53.240;8.798;2023-02-25T05:28:10;2.60;99.90
31765;DHT22;18338;53.240;8.798;2023-02-25T05:30:38;2.70;99.90
31765;DHT22;18338;53.240;8.798;2023-02-25T05:33:05;2.80;99.90
31765;DHT22;18338;53.240;8.798;2023-02-25T05:35:32;2.90;99.90
31765;DHT22;18338;53.240;8.798;2023-02-25T05:37:59;2.90;99.90
31765;DHT22;18338;53.240;8.798;2023-02-25T05:40:26;2.90;99.90
31765;DHT22;18338;53.240;8.798;2023-02-25T05:42:53;2.80;99.90
31765;DHT22;18338;53.240;8.798;2023-02-25T05:45:19;2.70;99.90
31765;DHT22;18338;53.240;8.798;2023-02-25T05:47:46;2.70;99.90
31765;DHT22;18338;53.240;8.798;2023-02-25T05:50:13;2.80;99.90
31765;DHT22;18338;53.240;8.798;2023-02-25T05:52:40;2.80;99.90
31765;DHT22;18338;53.240;8.798;2023-02-25T05:55:08;2.80;99.90
31765;DHT22;18338;53.240;8.798;2023-02-25T05:57:35;2.80;99.90
31765;DHT22;18338;53.240;8.798;2023-02-25T06:00:03;2.70;99.90
31765;DHT22;18338;53.240;8.798;2023-02-25T06:02:36;2.80;99.90
31765;DHT22;18338;53.240;8.798;2023-02-25T06:05:07;2.80;99.90
31765;DHT22;18338;53.240;8.798;2023-02-25T06:07:33;2.90;99.90
31765;DHT22;18338;53.240;8.798;2023-02-25T06:10:00;3.00;99.90
31765;DHT22;18338;53.240;8.798;2023-02-25T06:12:29;3.00;99.90
31765;DHT22;18338;53.240;8.798;2023-02-25T06:14:56;3.00;99.90
31765;DHT22;18338;53.240;8.798;2023-02-25T06:17:23;2.90;99.90
31765;DHT22;18338;53.240;8.798;2023-02-25T06:19:51;2.90;99.90
31765;DHT22;18338;53.240;8.798;2023-02-25T06:22:19;2.90;99.90
31765;DHT22;18338;53.240;8.798;2023-02-25T06:24:46;2.80;99.90
31765;DHT22;18338;53.240;8.798;2023-02-25T06:27:14;2.70;99.90
31765;DHT22;18338;53.240;8.798;2023-02-25T06:29:41;2.70;99.90
31765;DHT22;18338;53.240;8.798;2023-02-25T06:32:08;2.70;99.90
31765;DHT22;18338;53.240;8.798;2023-02-25T06:34:35;2.70;99.90
31765;DHT22;18338;53.240;8.798;2023-02-25T06:37:03;2.70;99.90
31765;DHT22;18338;53.240;8.798;2023-02-25T06:39:29;2.80;99.90
31765;DHT22;18338;53.240;8.798;2023-02-25T06:41:56;2.80;99.90
31765;DHT22;18338;53.240;8.798;2023-02-25T06:44:23;2.80;99.90
31765;DHT22;18338;53.240;8.798;2023-02-25T06:46:50;2.90;99.90
31765;DHT22;18338;53.240;8.798;2023-02-25T06:49:18;3.00;99.90
31765;DHT22;18338;53.240;8.798;2023-02-25T06:51:45;3.00;99.90
31765;DHT22;18338;53.240;8.798;2023-02-25T06:54:11;3.10;99.90
31765;DHT22;18338;53.240;8.798;2023-02-25T06:56:38;3.10;99.90
31765;DHT22;18338;53.240;8.798;2023-02-25T06:59:05;3.10;99.90
31765;DHT22;18338;53.240;8.798;2023-02-25T07:01:31;3.10;99.90
31765;DHT22;18338;53.240;8.798;2023-02-25T07:03:58;3.10;99.90
31765;DHT22;18338;53.240;8.798;2023-02-25T07:06:25;3.00;99.90
31765;DHT22;18338;53.240;8.798;2023-02-25T07:08:52;3.00;99.90
31765;DHT22;18338;53.240;8.798;2023-02-25T07:13:48;2.70;99.90
31765;DHT22;18338;53.240;8.798;2023-02-25T07:16:15;2.60;99.90
31765;DHT22;18338;53.240;8.798;2023-02-25T07:18:46;2.60;99.90
31765;DHT22;18338;53.240;8.798;2023-02-25T07:21:13;2.60;99.90
31765;DHT22;18338;53.240;8.798;2023-02-25T07:23:42;2.60;99.90
31765;DHT22;18338;53.240;8.798;2023-02-25T07:26:10;2.50;99.90
31765;DHT22;18338;53.240;8.798;2023-02-25T07:28:38;2.40;99.90
31765;DHT22;18338;53.240;8.798;2023-02-25T07:31:16;2.40;99.90
31765;DHT22;18338;53.240;8.798;2023-02-25T07:33:46;2.40;99.90
31765;DHT22;18338;53.240;8.798;2023-02-25T07:36:14;2.40;99.90
31765;DHT22;18338;53.240;8.798;2023-02-25T07:38:40;2.40;99.90
31765;DHT22;18338;53.240;8.798;2023-02-25T07:41:10;2.40;99.90
31765;DHT22;18338;53.240;8.798;2023-02-25T07:43:37;2.50;99.90
31765;DHT22;18338;53.240;8.798;2023-02-25T07:46:04;2.50;99.90
31765;DHT22;18338;53.240;8.798;2023-02-25T07:48:35;2.60;99.90
31765;DHT22;18338;53.240;8.798;2023-02-25T07:51:07;2.70;99.90
31765;DHT22;18338;53.240;8.798;2023-02-25T07:53:34;2.80;99.90
31765;DHT22;18338;53.240;8.798;2023-02-25T07:56:01;2.90;99.90
31765;DHT22;18338;53.240;8.798;2023-02-25T07:58:28;2.90;99.90
31765;DHT22;18338;53.240;8.798;2023-02-25T08:00:55;2.90;99.90
31765;DHT22;18338;53.240;8.798;2023-02-25T08:03:21;2.90;99.90
31765;DHT22;18338;53.240;8.798;2023-02-25T08:05:52;3.00;99.90
31765;DHT22;18338;53.240;8.798;2023-02-25T08:08:20;3.00;99.90
31765;DHT22;18338;53.240;8.798;2023-02-25T08:10:47;2.90;99.90
31765;DHT22;18338;53.240;8.798;2023-02-25T08:13:14;2.80;99.90
31765;DHT22;18338;53.240;8.798;2023-02-25T08:15:42;2.70;99.90
31765;DHT22;18338;53.240;8.798;2023-02-25T08:18:12;2.70;99.90
31765;DHT22;18338;53.240;8.798;2023-02-25T08:20:39;2.90;99.90
31765;DHT22;18338;53.240;8.798;2023-02-25T08:23:11;3.10;99.90
31765;DHT22;18338;53.240;8.798;2023-02-25T08:25:39;3.40;99.90
31765;DHT22;18338;53.240;8.798;2023-02-25T08:28:06;3.50;99.90
31765;DHT22;18338;53.240;8.798;2023-02-25T08:30:32;3.50;99.90
31765;DHT22;18338;53.240;8.798;2023-02-25T08:33:01;3.40;99.90
31765;DHT22;18338;53.240;8.798;2023-02-25T08:35:35;3.20;99.90
31765;DHT22;18338;53.240;8.798;2023-02-25T08:38:07;3.00;99.90
31765;DHT22;18338;53.240;8.798;2023-02-25T08:40:35;3.00;99.90
31765;DHT22;18338;53.240;8.798;2023-02-25T08:43:01;3.00;99.90
31765;DHT22;18338;53.240;8.798;2023-02-25T08:45:28;3.00;99.90
31765;DHT22;18338;53.240;8.798;2023-02-25T08:47:55;3.00;99.90
31765;DHT22;18338;53.240;8.798;2023-02-25T08:50:22;3.00;99.90
31765;DHT22;18338;53.240;8.798;2023-02-25T08:52:52;3.10;99.90
31765;DHT22;18338;53.240;8.798;2023-02-25T08:55:19;3.10;99.90
31765;DHT22;18338;53.240;8.798;2023-02-25T08:57:47;3.20;99.90
31765;DHT22;18338;53.240;8.798;2023-02-25T09:00:15;3.50;99.90
31765;DHT22;18338;53.240;8.798;2023-02-25T09:02:42;4.20;99.90
31765;DHT22;18338;53.240;8.798;2023-02-25T09:05:10;5.50;99.90
31765;DHT22;18338;53.240;8.798;2023-02-25T09:07:37;6.30;99.90
31765;DHT22;18338;53.240;8.798;2023-02-25T09:10:05;6.30;99.90
31765;DHT22;18338;53.240;8.798;2023-02-25T09:12:35;5.60;99.90
31765;DHT22;18338;53.240;8.798;2023-02-25T09:15:04;5.10;99.90
31765;DHT22;18338;53.240;8.798;2023-02-25T09:17:31;4.80;99.90
31765;DHT22;18338;53.240;8.798;2023-02-25T09:19:58;5.40;99.90
31765;DHT22;18338;53.240;8.798;2023-02-25T09:22:27;6.10;99.90
31765;DHT22;18338;53.240;8.798;2023-02-25T09:24:54;8.60;99.90
31765;DHT22;18338;53.240;8.798;2023-02-25T09:27:21;11.10;99.90
31765;DHT22;18338;53.240;8.798;2023-02-25T09:29:47;13.10;99.90
31765;DHT22;18338;53.240;8.798;2023-02-25T09:32:18;14.40;95.80
31765;DHT22;18338;53.240;8.798;2023-02-25T09:34:45;14.70;94.20
31765;DHT22;18338;53.240;8.798;2023-02-25T09:37:15;14.40;92.40
31765;DHT22;18338;53.240;8.798;2023-02-25T09:39:42;13.00;92.40
31765;DHT22;18338;53.240;8.798;2023-02-25T09:42:13;10.70;95.10
31765;DHT22;18338;53.240;8.798;2023-02-25T09:44:50;10.90;97.30
31765;DHT22;18338;53.240;8.798;2023-02-25T09:55:36;12.80;93.20
31765;DHT22;18338;53.240;8.798;2023-02-25T09:58:27;13.30;92.60
31765;DHT22;18338;53.240;8.798;2023-02-25T10:01:19;14.20;90.60
31765;DHT22;18338;53.240;8.798;2023-02-25T10:04:01;13.80;90.20
31765;DHT22;18338;53.240;8.798;2023-02-25T10:06:39;14.40;91.00
31765;DHT22;18338;53.240;8.798;2023-02-25T10:12:38;16.40;83.20
31765;DHT22;18338;53.240;8.798;2023-02-25T10:15:31;14.60;84.10
31765;DHT22;18338;53.240;8.798;2023-02-25T10:18:22;12.20;91.00
31765;DHT22;18338;53.240;8.798;2023-02-25T10:21:21;12.10;91.10
31765;DHT22;18338;53.240;8.798;2023-02-25T10:26:42;14.40;91.10
31765;DHT22;18338;53.240;8.798;2023-02-25T10:29:29;14.70;85.80
31765;DHT22;18338;53.240;8.798;2023-02-25T10:32:14;15.20;85.90
31765;DHT22;18338;53.240;8.798;2023-02-25T10:34:42;15.50;82.30
31765;DHT22;18338;53.240;8.798;2023-02-25T10:37:25;15.70;82.00
31765;DHT22;18338;53.240;8.798;2023-02-25T10:39:56;16.00;79.20
31765;DHT22;18338;53.240;8.798;2023-02-25T10:42:25;16.20;78.80
31765;DHT22;18338;53.240;8.798;2023-02-25T10:44:54;15.70;80.10
31765;DHT22;18338;53.240;8.798;2023-02-25T10:47:36;17.40;80.10
31765;DHT22;18338;53.240;8.798;2023-02-25T10:58:36;14.50;81.10
31765;DHT22;18338;53.240;8.798;2023-02-25T11:01:11;13.20;85.50
31765;DHT22;18338;53.240;8.798;2023-02-25T11:03:56;14.30;80.30
31765;DHT22;18338;53.240;8.798;2023-02-25T11:06:32;15.50;82.80
31765;DHT22;18338;53.240;8.798;2023-02-25T11:09:06;17.80;75.80
31765;DHT22;18338;53.240;8.798;2023-02-25T11:14:35;17.50;72.50
31765;DHT22;18338;53.240;8.798;2023-02-25T11:19:42;13.40;77.70
31765;DHT22;18338;53.240;8.798;2023-02-25T11:22:21;14.70;79.10
31765;DHT22;18338;53.240;8.798;2023-02-25T11:25:15;16.80;77.40
31765;DHT22;18338;53.240;8.798;2023-02-25T11:27:46;17.90;74.50
31765;DHT22;18338;53.240;8.798;2023-02-25T11:30:27;17.40;71.90
31765;DHT22;18338;53.240;8.798;2023-02-25T11:32:56;17.00;73.20
31765;DHT22;18338;53.240;8.798;2023-02-25T11:35:27;16.70;73.00
31765;DHT22;18338;53.240;8.798;2023-02-25T11:37:57;15.00;71.50
31765;DHT22;18338;53.240;8.798;2023-02-25T11:40:39;12.30;79.80
31765;DHT22;18338;53.240;8.798;2023-02-25T11:43:14;14.10;82.80
31765;DHT22;18338;53.240;8.798;2023-02-25T11:46:07;16.40;75.20
31765;DHT22;18338;53.240;8.798;2023-02-25T11:49:18;13.60;76.00
31765;DHT22;18338;53.240;8.798;2023-02-25T11:51:53;11.20;86.30
31765;DHT22;18338;53.240;8.798;2023-02-25T12:08:34;15.90;77.70
31765;DHT22;18338;53.240;8.798;2023-02-25T12:11:26;17.80;72.80
31765;DHT22;18338;53.240;8.798;2023-02-25T12:14:09;17.90;72.00
31765;DHT22;18338;53.240;8.798;2023-02-25T12:17:13;19.30;70.40
31765;DHT22;18338;53.240;8.798;2023-02-25T12:19:52;17.00;68.10
31765;DHT22;18338;53.240;8.798;2023-02-25T12:28:05;16.00;76.10
31765;DHT22;18338;53.240;8.798;2023-02-25T12:47:56;18.10;68.30
31765;DHT22;18338;53.240;8.798;2023-02-25T12:53:28;15.90;66.40
31765;DHT22;18338;53.240;8.798;2023-02-25T12:56:03;13.90;74.10
31765;DHT22;18338;53.240;8.798;2023-02-25T12:58:42;15.40;73.00
31765;DHT22;18338;53.240;8.798;2023-02-25T13:07:12;16.50;66.30
31765;DHT22;18338;53.240;8.798;2023-02-25T13:09:58;16.80;66.40
31765;DHT22;18338;53.240;8.798;2023-02-25T13:12:48;16.70;66.90
31765;DHT22;18338;53.240;8.798;2023-02-25T13:17:57;14.60;69.90
31765;DHT22;18338;53.240;8.798;2023-02-25T13:23:45;14.30;72.00
31765;DHT22;18338;53.240;8.798;2023-02-25T13:26:43;12.80;74.60
31765;DHT22;18338;53.240;8.798;2023-02-25T13:33:08;10.40;80.40
31765;DHT22;18338;53.240;8.798;2023-02-25T13:52:28;10.70;79.70
31765;DHT22;18338;53.240;8.798;2023-02-25T13:55:07;12.40;79.90
31765;DHT22;18338;53.240;8.798;2023-02-25T13:57:58;15.40;76.50
31765;DHT22;18338;53.240;8.798;2023-02-25T14:07:07;14.10;74.20
31765;DHT22;18338;53.240;8.798;2023-02-25T14:18:22;11.30;77.10
31765;DHT22;18338;53.240;8.798;2023-02-25T14:23:54;12.30;77.90
31765;DHT22;18338;53.240;8.798;2023-02-25T14:40:45;10.70;82.20
31765;DHT22;18338;53.240;8.798;2023-02-25T14:43:27;10.10;82.60
31765;DHT22;18338;53.240;8.798;2023-02-25T14:49:04;10.60;85.10
31765;DHT22;18338;53.240;8.798;2023-02-25T14:54:19;10.10;82.20
31765;DHT22;18338;53.240;8.798;2023-02-25T14:59:55;7.90;89.70
31765;DHT22;18338;53.240;8.798;2023-02-25T15:02:39;8.50;90.10
31765;DHT22;18338;53.240;8.798;2023-02-25T15:08:30;8.70;89.50
31765;DHT22;18338;53.240;8.798;2023-02-25T15:12:19;8.20;90.40
31765;DHT22;18338;53.240;8.798;2023-02-25T15:14:41;7.80;90.40
31765;DHT22;18338;53.240;8.798;2023-02-25T15:20:25;7.90;90.50
31765;DHT22;18338;53.240;8.798;2023-02-25T15:23:04;8.20;89.20
31765;DHT22;18338;53.240;8.798;2023-02-25T15:26:19;7.70;90.40
31765;DHT22;18338;53.240;8.798;2023-02-25T15:28:53;8.60;88.60
31765;DHT22;18338;53.240;8.798;2023-02-25T15:31:29;10.10;87.60
31765;DHT22;18338;53.240;8.798;2023-02-25T15:34:30;11.00;81.90
31765;DHT22;18338;53.240;8.798;2023-02-25T15:37:20;11.00;80.70
31765;DHT22;18338;53.240;8.798;2023-02-25T15:39:49;10.40;80.20
31765;DHT22;18338;53.240;8.798;2023-02-25T15:42:58;10.20;81.70
31765;DHT22;18338;53.240;8.798;2023-02-25T15:55:51;9.90;81.80
31765;DHT22;18338;53.240;8.798;2023-02-25T16:00:55;10.10;82.60
31765;DHT22;18338;53.240;8.798;2023-02-25T16:06:17;8.50;84.40
31765;DHT22;18338;53.240;8.798;2023-02-25T16:09:08;7.70;90.20
31765;DHT22;18338;53.240;8.798;2023-02-25T16:11:45;6.80;91.20
31765;DHT22;18338;53.240;8.798;2023-02-25T16:14:27;6.10;92.10
31765;DHT22;18338;53.240;8.798;2023-02-25T16:17:12;5.60;93.70
31765;DHT22;18338;53.240;8.798;2023-02-25T16:19:40;5.20;95.50
31765;DHT22;18338;53.240;8.798;2023-02-25T16:22:20;5.00;95.80
31765;DHT22;18338;53.240;8.798;2023-02-25T16:24:50;4.60;97.30
31765;DHT22;18338;53.240;8.798;2023-02-25T16:30:21;4.10;99.70
31765;DHT22;18338;53.240;8.798;2023-02-25T16:33:09;3.90;99.80
31765;DHT22;18338;53.240;8.798;2023-02-25T16:35:52;3.70;99.90
31765;DHT22;18338;53.240;8.798;2023-02-25T16:41:10;3.50;99.90
31765;DHT22;18338;53.240;8.798;2023-02-25T16:43:40;3.30;99.90
31765;DHT22;18338;53.240;8.798;2023-02-25T16:46:13;3.20;99.90
31765;DHT22;18338;53.240;8.798;2023-02-25T16:49:16;3.30;99.90
31765;DHT22;18338;53.240;8.798;2023-02-25T16:51:45;3.40;99.90
31765;DHT22;18338;53.240;8.798;2023-02-25T16:54:23;3.50;99.90
31765;DHT22;18338;53.240;8.798;2023-02-25T16:56:54;3.60;99.90
31765;DHT22;18338;53.240;8.798;2023-02-25T16:59:23;3.60;99.90
31765;DHT22;18338;53.240;8.798;2023-02-25T17:01:56;3.70;99.90
31765;DHT22;18338;53.240;8.798;2023-02-25T17:04:31;3.80;99.90
31765;DHT22;18338;53.240;8.798;2023-02-25T17:07:20;3.70;99.90
31765;DHT22;18338;53.240;8.798;2023-02-25T17:09:52;3.50;99.90
31765;DHT22;18338;53.240;8.798;2023-02-25T17:12:35;3.20;99.90
31765;DHT22;18338;53.240;8.798;2023-02-25T17:15:11;2.80;99.90
31765;DHT22;18338;53.240;8.798;2023-02-25T17:17:40;2.50;99.90
31765;DHT22;18338;53.240;8.798;2023-02-25T17:20:14;2.30;99.90
31765;DHT22;18338;53.240;8.798;2023-02-25T17:22:43;2.00;99.90
31765;DHT22;18338;53.240;8.798;2023-02-25T17:25:11;1.90;99.90
31765;DHT22;18338;53.240;8.798;2023-02-25T17:27:43;1.80;99.90
31765;DHT22;18338;53.240;8.798;2023-02-25T17:30:37;1.70;99.90
31765;DHT22;18338;53.240;8.798;2023-02-25T17:33:06;1.80;99.90
31765;DHT22;18338;53.240;8.798;2023-02-25T17:35:44;1.80;99.90
31765;DHT22;18338;53.240;8.798;2023-02-25T17:38:17;1.90;99.90
31765;DHT22;18338;53.240;8.798;2023-02-25T17:40:46;2.00;99.90
31765;DHT22;18338;53.240;8.798;2023-02-25T17:45:40;2.00;99.90
31765;DHT22;18338;53.240;8.798;2023-02-25T17:48:21;2.00;99.90
31765;DHT22;18338;53.240;8.798;2023-02-25T17:50:57;1.80;99.90
31765;DHT22;18338;53.240;8.798;2023-02-25T17:53:39;1.80;99.90
31765;DHT22;18338;53.240;8.798;2023-02-25T17:56:14;1.70;99.90
31765;DHT22;18338;53.240;8.798;2023-02-25T17:58:43;1.70;99.90
31765;DHT22;18338;53.240;8.798;2023-02-25T18:01:28;1.60;99.90
31765;DHT22;18338;53.240;8.798;2023-02-25T18:04:04;1.60;99.90
31765;DHT22;18338;53.240;8.798;2023-02-25T18:06:40;1.50;99.90
31765;DHT22;18338;53.240;8.798;2023-02-25T18:12:01;1.40;99.90
31765;DHT22;18338;53.240;8.798;2023-02-25T18:14:32;1.40;99.90
31765;DHT22;18338;53.240;8.798;2023-02-25T18:17:10;1.40;99.90
31765;DHT22;18338;53.240;8.798;2023-02-25T18:19:42;1.40;99.90
31765;DHT22;18338;53.240;8.798;2023-02-25T18:22:35;1.30;99.90
31765;DHT22;18338;53.240;8.798;2023-02-25T18:25:27;1.20;99.90
31765;DHT22;18338;53.240;8.798;2023-02-25T18:27:53;1.00;99.90
31765;DHT22;18338;53.240;8.798;2023-02-25T18:30:22;0.80;99.90
31765;DHT22;18338;53.240;8.798;2023-02-25T18:32:50;0.60;99.90
31765;DHT22;18338;53.240;8.798;2023-02-25T18:35:17;0.50;99.90
31765;DHT22;18338;53.240;8.798;2023-02-25T18:37:46;0.40;99.90
31765;DHT22;18338;53.240;8.798;2023-02-25T18:40:19;0.30;99.90
31765;DHT22;18338;53.240;8.798;2023-02-25T18:42:47;0.20;99.90
31765;DHT22;18338;53.240;8.798;2023-02-25T18:45:21;0.20;99.90
31765;DHT22;18338;53.240;8.798;2023-02-25T18:47:50;0.10;99.90
31765;DHT22;18338;53.240;8.798;2023-02-25T18:50:18;0.10;99.90
31765;DHT22;18338;53.240;8.798;2023-02-25T18:52:46;0.00;99.90
31765;DHT22;18338;53.240;8.798;2023-02-25T18:55:16;0.00;99.90
31765;DHT22;18338;53.240;8.798;2023-02-25T18:57:43;0.00;99.90
31765;DHT22;18338;53.240;8.798;2023-02-25T19:00:11;0.10;99.90
31765;DHT22;18338;53.240;8.798;2023-02-25T19:02:44;0.10;99.90
31765;DHT22;18338;53.240;8.798;2023-02-25T19:05:12;0.00;99.90
31765;DHT22;18338;53.240;8.798;2023-02-25T19:07:39;0.10;99.90
31765;DHT22;18338;53.240;8.798;2023-02-25T19:10:06;-0.10;99.90
31765;DHT22;18338;53.240;8.798;2023-02-25T19:12:33;-0.20;99.90
31765;DHT22;18338;53.240;8.798;2023-02-25T19:15:04;-0.30;99.90
31765;DHT22;18338;53.240;8.798;2023-02-25T19:17:32;-0.30;99.90
31765;DHT22;18338;53.240;8.798;2023-02-25T19:19:59;-0.40;99.90
31765;DHT22;18338;53.240;8.798;2023-02-25T19:22:26;-0.40;99.90
31765;DHT22;18338;53.240;8.798;2023-02-25T19:24:53;-0.40;99.90
31765;DHT22;18338;53.240;8.798;2023-02-25T19:27:28;-0.50;99.90
31765;DHT22;18338;53.240;8.798;2023-02-25T19:29:57;-0.50;99.90
31765;DHT22;18338;53.240;8.798;2023-02-25T19:32:25;-0.40;99.90